Terminal Aerodrome Forecast
Issued by NWS Twin Cities, MN

Home | Current Version | Previous Version | Graphics & Text | Print | Product List | Glossary On
Versions: 1 2 3 4 5 6 7 8 9 10 11 12 13 14 15 16 17 18 19 20 21 22 23 24 25 26
000
FTUS43 KMPX 211300 AAA
TAFSTC
TAF AMD
KSTC 211350Z 2114/2212 11006KT P6SM SCT005 BKN035
      TEMPO 2114/2116 BKN005
     FM211600 15007KT P6SM SCT040 BKN100
     FM212300 VRB03KT P6SM SKC
     FM220500 VRB03KT 3SM BR SCT003
     FM220700 VRB03KT 1/4SM FG VV001=

USA.gov is the U.S. government's official web portal to all federal, state and local government web resources and services.